createdAt,value
2019-04-27T00:00:46.492Z,100000.05
2019-04-27T00:03:19.046Z,100002.76
2019-04-27T00:05:59.440Z,100021.61
2019-04-27T00:08:38.841Z,100017.36
2019-04-27T00:11:09.595Z,100026.58
2019-04-27T00:13:43.986Z,100015.84
2019-04-27T00:16:18.531Z,100024.05
2019-04-27T00:19:10.871Z,100025.48
2019-04-27T00:21:48.055Z,100022.97
2019-04-27T00:24:20.746Z,100035.40
2019-04-27T00:26:54.073Z,100022.45
2019-04-27T00:29:26.971Z,100026.50
2019-04-27T00:31:59.706Z,100025.23
2019-04-27T00:34:33.941Z,100025.02
2019-04-27T00:37:11.368Z,100031.75
2019-04-27T00:39:45.857Z,100030.87
2019-04-27T00:42:18.787Z,100025.45
2019-04-27T00:44:51.502Z,100028.03
2019-04-27T00:47:24.248Z,100036.78
2019-04-27T00:49:56.949Z,100038.88
2019-04-27T00:52:29.688Z,100050.20
2019-04-27T00:55:03.143Z,100058.30
2019-04-27T00:57:40.353Z,100061.64
2019-04-27T01:00:31.129Z,100047.39
2019-04-27T01:03:05.664Z,100061.80
2019-04-27T01:05:38.235Z,100070.94
2019-04-27T01:08:10.869Z,100073.94
2019-04-27T01:10:44.201Z,100091.39
2019-04-27T01:13:17.079Z,100088.19
2019-04-27T01:15:49.649Z,100097.13
2019-04-27T01:18:22.399Z,100099.56
2019-04-27T01:20:54.925Z,100102.28
2019-04-27T01:23:29.394Z,100096.80
2019-04-27T01:26:20.755Z,100092.68
2019-04-27T01:29:02.260Z,100100.55
2019-04-27T01:31:36.150Z,100099.45
2019-04-27T01:34:10.311Z,100099.92
2019-04-27T01:36:43.146Z,100099.61
2019-04-27T01:39:18.624Z,100101.28
2019-04-27T01:41:51.584Z,100115.95
2019-04-27T01:44:25.378Z,100093.41
2019-04-27T01:46:59.868Z,100107.94
2019-04-27T01:49:32.582Z,100121.05
2019-04-27T01:52:05.776Z,100127.71
2019-04-27T01:54:40.807Z,100124.87
2019-04-27T01:57:12.716Z,100133.23
2019-04-27T01:59:45.436Z,100140.33
2019-04-27T02:02:34.826Z,100138.67
2019-04-27T02:05:15.077Z,100139.80
2019-04-27T02:07:53.908Z,100157.44
2019-04-27T02:10:26.537Z,100157.95
2019-04-27T02:12:59.089Z,100162.30
2019-04-27T02:15:31.696Z,100160.61
2019-04-27T02:18:04.737Z,100160.44
2019-04-27T02:20:38.776Z,100168.95
2019-04-27T02:23:11.823Z,100169.61
2019-04-27T02:25:44.812Z,100167.50
2019-04-27T02:28:22.923Z,100165.64
2019-04-27T02:31:13.108Z,100159.77
2019-04-27T02:33:49.822Z,100168.86
2019-04-27T02:36:21.843Z,100168.48
2019-04-27T02:38:54.393Z,100163.91
2019-04-27T02:41:27.003Z,100164.89
2019-04-27T02:44:09.684Z,100176.69
2019-04-27T02:46:42.693Z,100175.51
2019-04-27T02:49:15.078Z,100175.38
2019-04-27T02:51:59.476Z,100170.08
2019-04-27T02:54:32.648Z,100170.80
2019-04-27T02:57:05.333Z,100179.03
2019-04-27T02:59:39.899Z,100189.61
2019-04-27T03:02:12.003Z,100179.98
2019-04-27T03:04:44.676Z,100190.25
2019-04-27T03:07:17.227Z,100187.86
2019-04-27T03:09:51.034Z,100196.51
2019-04-27T03:12:25.577Z,100198.12
2019-04-27T03:15:14.836Z,100192.70
2019-04-27T03:18:05.337Z,100202.54
2019-04-27T03:20:40.306Z,100205.68
2019-04-27T03:23:13.724Z,100212.75
2019-04-27T03:25:50.381Z,100215.90
2019-04-27T03:28:22.288Z,100222.13
2019-04-27T03:30:54.873Z,100213.62
2019-04-27T03:33:31.979Z,100187.62
2019-04-27T03:36:03.097Z,100192.94
2019-04-27T03:38:35.973Z,100202.81
2019-04-27T03:41:09.525Z,100203.70
2019-04-27T03:43:42.731Z,100209.34
2019-04-27T03:46:15.272Z,100205.62
2019-04-27T03:48:49.727Z,100209.36
2019-04-27T03:51:26.648Z,100213.20
2019-04-27T03:54:01.062Z,100210.17
2019-04-27T03:56:39.554Z,100209.70
2019-04-27T03:59:16.879Z,100215.23
2019-04-27T04:01:50.609Z,100214.63
2019-04-27T04:04:23.537Z,100222.66
2019-04-27T04:07:13.704Z,100223.62
2019-04-27T04:09:46.532Z,100222.88
2019-04-27T04:12:20.647Z,100232.98
2019-04-27T04:14:53.553Z,100235.24
2019-04-27T04:17:27.102Z,100242.20
2019-04-27T04:20:01.890Z,100252.31
2019-04-27T04:22:34.971Z,100260.13
2019-04-27T04:25:10.699Z,100251.94
2019-04-27T04:27:43.174Z,100236.33
2019-04-27T04:30:16.257Z,100247.38
2019-04-27T04:32:49.809Z,100236.44
2019-04-27T04:35:25.520Z,100246.89
2019-04-27T04:38:00.228Z,100244.36
2019-04-27T04:40:40.397Z,100252.61
2019-04-27T04:43:14.915Z,100251.55
2019-04-27T04:45:59.755Z,100262.89
2019-04-27T04:48:32.676Z,100262.52
2019-04-27T04:51:05.511Z,100276.60
2019-04-27T04:53:40.000Z,100276.23
2019-04-27T04:56:12.344Z,100272.83
2019-04-27T04:58:45.133Z,100279.62
2019-04-27T05:01:19.647Z,100285.70
2019-04-27T05:03:52.236Z,100285.92
2019-04-27T05:06:25.561Z,100298.28
2019-04-27T05:08:59.528Z,100297.79
2019-04-27T05:11:32.361Z,100290.91
2019-04-27T05:14:05.050Z,100293.45
2019-04-27T05:16:39.065Z,100285.36
2019-04-27T05:19:11.810Z,100279.09
2019-04-27T05:21:44.451Z,100283.33
2019-04-27T05:24:19.250Z,100285.09
2019-04-27T05:26:51.806Z,100287.16
2019-04-27T05:29:24.547Z,100289.13
2019-04-27T05:31:59.055Z,100298.37
2019-04-27T05:34:34.550Z,100304.04
2019-04-27T05:37:08.905Z,100309.09
2019-04-27T05:39:42.736Z,100318.73
2019-04-27T05:42:19.867Z,100315.84
2019-04-27T05:45:04.181Z,100320.73
2019-04-27T05:47:43.394Z,100327.34
2019-04-27T05:50:18.296Z,100328.91
2019-04-27T05:52:50.516Z,100328.59
2019-04-27T05:55:23.180Z,100331.83
2019-04-27T05:57:55.990Z,100328.25
2019-04-27T06:00:29.299Z,100336.06
2019-04-27T06:03:02.206Z,100335.34
2019-04-27T06:05:34.681Z,100342.34
2019-04-27T06:08:08.782Z,100341.63
2019-04-27T06:10:41.400Z,100341.03
2019-04-27T06:13:14.091Z,100336.95
2019-04-27T06:15:46.868Z,100340.64
2019-04-27T06:18:20.790Z,100331.55
2019-04-27T06:20:55.878Z,100336.44
2019-04-27T06:23:28.915Z,100341.84
2019-04-27T06:26:01.985Z,100353.27
2019-04-27T06:28:34.850Z,100346.66
2019-04-27T06:31:08.767Z,100354.47
2019-04-27T06:33:41.678Z,100356.14
2019-04-27T06:36:14.395Z,100363.13
2019-04-27T06:38:48.558Z,100357.72
2019-04-27T06:41:21.562Z,100372.95
2019-04-27T06:43:54.365Z,100381.79
2019-04-27T06:46:28.655Z,100383.45
2019-04-27T06:49:02.316Z,100382.03
2019-04-27T06:51:35.050Z,100387.55
2019-04-27T06:54:09.287Z,100390.18
2019-04-27T06:56:42.326Z,100396.17
2019-04-27T06:59:15.029Z,100401.02
2019-04-27T07:01:48.950Z,100399.70
2019-04-27T07:04:21.574Z,100399.23
2019-04-27T07:06:56.242Z,100407.89
2019-04-27T07:09:29.466Z,100401.05
2019-04-27T07:12:02.191Z,100404.41
2019-04-27T07:14:34.861Z,100401.66
2019-04-27T07:17:08.946Z,100405.74
2019-04-27T07:19:43.210Z,100421.70
2019-04-27T07:22:15.895Z,100424.41
2019-04-27T07:24:49.079Z,100424.89
2019-04-27T07:27:22.830Z,100413.36
2019-04-27T07:29:55.625Z,100413.70
2019-04-27T07:32:29.205Z,100410.56
2019-04-27T07:35:01.920Z,100413.63
2019-04-27T07:37:34.560Z,100420.36
2019-04-27T07:40:09.041Z,100420.27
2019-04-27T07:42:45.924Z,100436.53
2019-04-27T07:45:17.306Z,100435.16
2019-04-27T07:47:51.305Z,100437.34
2019-04-27T07:50:24.095Z,100448.84
2019-04-27T07:52:58.550Z,100431.41
2019-04-27T07:55:31.156Z,100432.33
2019-04-27T07:58:05.239Z,100415.28
2019-04-27T08:00:39.496Z,100431.67
2019-04-27T08:03:12.341Z,100436.28
2019-04-27T08:05:44.950Z,100446.52
2019-04-27T08:08:18.970Z,100447.84
2019-04-27T08:10:52.135Z,100450.20
2019-04-27T08:13:24.827Z,100458.31
2019-04-27T08:15:58.964Z,100447.76
2019-04-27T08:18:31.846Z,100448.27
2019-04-27T08:21:04.710Z,100447.84
2019-04-27T08:23:37.195Z,100457.82
2019-04-27T08:26:11.590Z,100466.11
2019-04-27T08:28:51.245Z,100472.11
2019-04-27T08:31:25.665Z,100471.84
2019-04-27T08:33:58.579Z,100467.52
2019-04-27T08:36:33.355Z,100469.02
2019-04-27T08:39:08.921Z,100464.27
2019-04-27T08:41:41.971Z,100473.02
2019-04-27T08:44:14.729Z,100476.26
2019-04-27T08:46:47.389Z,100474.37
2019-04-27T08:49:20.249Z,100473.91
2019-04-27T08:51:58.860Z,100478.13
2019-04-27T08:54:26.849Z,100480.30
2019-04-27T08:57:01.684Z,100494.84
2019-04-27T08:59:33.855Z,100495.91
2019-04-27T09:02:08.789Z,100502.20
2019-04-27T09:04:41.556Z,100495.32
2019-04-27T09:07:32.260Z,100498.23
2019-04-27T09:10:08.648Z,100490.12
2019-04-27T09:12:53.734Z,100500.63
2019-04-27T09:15:26.318Z,100515.49
2019-04-27T09:18:01.362Z,100510.76
2019-04-27T09:20:42.422Z,100503.20
2019-04-27T09:23:15.159Z,100495.73
2019-04-27T09:25:49.449Z,100492.47
2019-04-27T09:28:22.159Z,100493.89
2019-04-27T09:30:54.779Z,100487.72
2019-04-27T09:33:28.140Z,100505.62
2019-04-27T09:36:01.401Z,100501.19
2019-04-27T09:38:35.651Z,100495.92
2019-04-27T09:41:07.938Z,100491.02
2019-04-27T09:43:40.339Z,100483.91
2019-04-27T09:46:12.861Z,100479.16
2019-04-27T09:48:46.645Z,100468.03
2019-04-27T09:51:19.042Z,100454.63
2019-04-27T09:53:51.719Z,100468.45
2019-04-27T09:56:26.067Z,100492.39
2019-04-27T09:58:58.200Z,100511.84
2019-04-27T10:01:30.795Z,100506.80
2019-04-27T10:04:03.235Z,100511.30
2019-04-27T10:06:36.313Z,100515.81
2019-04-27T10:09:09.906Z,100511.14
2019-04-27T10:11:42.545Z,100508.88
2019-04-27T10:14:16.333Z,100512.44
2019-04-27T10:16:48.705Z,100507.91
2019-04-27T10:19:28.562Z,100512.56
2019-04-27T10:21:55.325Z,100513.55
2019-04-27T10:24:27.605Z,100516.33
2019-04-27T10:27:01.085Z,100516.08
2019-04-27T10:29:33.505Z,100511.45
2019-04-27T10:32:06.421Z,100509.45
2019-04-27T10:34:38.886Z,100521.23
2019-04-27T10:37:11.310Z,100509.20
2019-04-27T10:39:43.610Z,100518.47
2019-04-27T10:42:16.225Z,100521.71
2019-04-27T10:44:48.484Z,100508.61
2019-04-27T10:47:20.885Z,100512.95
2019-04-27T10:49:53.444Z,100509.20
2019-04-27T10:52:26.005Z,100509.31
2019-04-27T10:54:59.085Z,100511.23
2019-04-27T10:57:31.486Z,100515.58
2019-04-27T11:00:06.694Z,100515.95
2019-04-27T11:02:39.575Z,100519.57
2019-04-27T11:05:13.905Z,100511.87
2019-04-27T11:07:46.585Z,100506.75
2019-04-27T11:10:19.350Z,100517.79
2019-04-27T11:12:51.732Z,100508.18
2019-04-27T11:15:26.391Z,100498.56
2019-04-27T11:17:58.950Z,100506.17
2019-04-27T11:20:31.390Z,100508.18
2019-04-27T11:23:09.321Z,100520.03
2019-04-27T11:25:38.131Z,100519.09
2019-04-27T11:28:10.710Z,100518.58
2019-04-27T11:30:43.170Z,100518.58
2019-04-27T11:33:16.221Z,100522.22
2019-04-27T11:35:56.450Z,100521.30
2019-04-27T11:38:28.970Z,100530.56
2019-04-27T11:41:01.335Z,100535.66
2019-04-27T11:43:34.005Z,100526.30
2019-04-27T11:46:06.485Z,100527.73
2019-04-27T11:48:38.985Z,100535.31
2019-04-27T11:51:11.380Z,100530.38
2019-04-27T11:53:43.955Z,100539.16
2019-04-27T11:56:17.745Z,100542.66
2019-04-27T11:58:50.255Z,100537.58
2019-04-27T12:01:26.949Z,100534.84
2019-04-27T12:04:00.574Z,100543.13
2019-04-27T12:06:33.160Z,100531.59
2019-04-27T12:09:07.715Z,100533.50
2019-04-27T12:11:40.480Z,100538.34
2019-04-27T12:14:12.760Z,100526.78
2019-04-27T12:16:46.135Z,100524.60
2019-04-27T12:19:19.140Z,100528.83
2019-04-27T12:21:51.880Z,100532.08
2019-04-27T12:24:24.604Z,100534.71
2019-04-27T12:27:02.480Z,100527.23
2019-04-27T12:29:42.735Z,100524.58
2019-04-27T12:32:15.746Z,100518.03
2019-04-27T12:34:49.856Z,100521.50
2019-04-27T12:37:22.630Z,100533.28
2019-04-27T12:39:57.647Z,100527.91
2019-04-27T12:42:31.275Z,100526.36
2019-04-27T12:45:04.901Z,100527.87
2019-04-27T12:47:37.605Z,100533.30
2019-04-27T12:50:14.366Z,100539.91
2019-04-27T12:52:48.720Z,100540.17
2019-04-27T12:55:30.504Z,100533.36
2019-04-27T12:58:07.721Z,100527.98
2019-04-27T13:00:41.938Z,100519.67
2019-04-27T13:03:16.078Z,100518.97
2019-04-27T13:05:49.106Z,100522.77
2019-04-27T13:08:21.800Z,100522.07
2019-04-27T13:10:55.367Z,100527.11
2019-04-27T13:13:29.085Z,100526.69
2019-04-27T13:16:01.800Z,100522.19
2019-04-27T13:18:35.968Z,100524.66
2019-04-27T13:21:08.465Z,100524.22
2019-04-27T13:23:42.290Z,100524.05
2019-04-27T13:26:16.462Z,100521.99
2019-04-27T13:28:49.060Z,100527.24
2019-04-27T13:31:21.854Z,100528.93
2019-04-27T13:33:55.730Z,100532.31
2019-04-27T13:36:28.540Z,100531.06
2019-04-27T13:39:01.372Z,100533.32
2019-04-27T13:41:36.031Z,100534.78
2019-04-27T13:44:08.805Z,100534.10
2019-04-27T13:46:59.265Z,100531.52
2019-04-27T13:49:31.600Z,100530.83
2019-04-27T13:52:06.151Z,100525.63
2019-04-27T13:54:38.799Z,100523.52
2019-04-27T13:57:11.190Z,100523.73
2019-04-27T13:59:43.950Z,100518.28
2019-04-27T14:02:16.505Z,100520.83
2019-04-27T14:04:49.190Z,100511.30
2019-04-27T14:07:21.715Z,100513.47
2019-04-27T14:09:54.275Z,100513.80
2019-04-27T14:12:28.400Z,100513.47
2019-04-27T14:15:01.124Z,100508.01
2019-04-27T14:17:33.825Z,100512.05
2019-04-27T14:20:07.888Z,100513.55
2019-04-27T14:22:41.865Z,100507.86
2019-04-27T14:25:14.660Z,100510.20
2019-04-27T14:27:48.887Z,100516.53
2019-04-27T14:30:22.130Z,100519.41
2019-04-27T14:32:54.605Z,100516.62
2019-04-27T14:35:28.303Z,100517.04
2019-04-27T14:38:01.105Z,100521.48
2019-04-27T14:40:33.784Z,100512.70
2019-04-27T14:43:08.387Z,100514.05
2019-04-27T14:45:40.682Z,100506.47
2019-04-27T14:48:13.375Z,100510.52
2019-04-27T14:50:48.375Z,100521.22
2019-04-27T14:53:20.735Z,100514.73
2019-04-27T14:55:53.415Z,100507.02
2019-04-27T14:58:26.085Z,100509.97
2019-04-27T15:00:58.766Z,100517.95
2019-04-27T15:03:31.376Z,100513.03
2019-04-27T15:06:03.985Z,100518.35
2019-04-27T15:08:38.388Z,100512.84
2019-04-27T15:11:17.342Z,100513.09
2019-04-27T15:13:48.079Z,100512.91
2019-04-27T15:16:19.905Z,100517.59
2019-04-27T15:19:02.371Z,100515.66
2019-04-27T15:21:40.717Z,100515.90
2019-04-27T15:24:09.921Z,100510.42
2019-04-27T15:26:43.106Z,100513.90
2019-04-27T15:29:20.602Z,100516.81
2019-04-27T15:31:56.006Z,100521.39
2019-04-27T15:34:35.642Z,100517.94
2019-04-27T15:37:22.445Z,100515.15
2019-04-27T15:40:12.679Z,100514.64
2019-04-27T15:42:51.729Z,100519.69
2019-04-27T15:45:24.325Z,100514.75
2019-04-27T15:47:56.145Z,100523.80
2019-04-27T15:50:32.201Z,100523.73
2019-04-27T15:53:06.899Z,100523.03
2019-04-27T15:55:39.611Z,100522.58
2019-04-27T15:58:11.730Z,100515.52
2019-04-27T16:00:44.350Z,100519.50
2019-04-27T16:03:18.441Z,100521.00
2019-04-27T16:05:51.340Z,100516.25
2019-04-27T16:08:23.988Z,100513.84
2019-04-27T16:10:56.680Z,100503.73
2019-04-27T16:13:32.947Z,100493.56
2019-04-27T16:16:03.920Z,100499.34
2019-04-27T16:18:38.692Z,100497.86
2019-04-27T16:21:11.239Z,100509.13
2019-04-27T16:23:44.167Z,100506.75
2019-04-27T16:26:18.337Z,100505.11
2019-04-27T16:28:53.385Z,100501.84
2019-04-27T16:31:31.475Z,100481.81
2019-04-27T16:34:02.747Z,100484.94
2019-04-27T16:36:37.755Z,100488.98
2019-04-27T16:39:10.077Z,100483.75
2019-04-27T16:41:44.380Z,100475.69
2019-04-27T16:44:17.080Z,100476.34
2019-04-27T16:46:49.695Z,100478.34
2019-04-27T16:49:22.890Z,100477.17
2019-04-27T16:51:55.325Z,100477.51
2019-04-27T16:54:28.312Z,100481.38
2019-04-27T16:57:05.163Z,100490.19
2019-04-27T16:59:43.021Z,100488.38
2019-04-27T17:02:09.336Z,100483.69
2019-04-27T17:04:45.105Z,100483.95
2019-04-27T17:07:18.806Z,100476.03
2019-04-27T17:09:52.200Z,100477.36
2019-04-27T17:12:29.836Z,100476.38
2019-04-27T17:15:05.863Z,100487.46
2019-04-27T17:17:42.704Z,100490.31
2019-04-27T17:20:19.564Z,100490.75
2019-04-27T17:22:53.011Z,100494.14
2019-04-27T17:25:23.935Z,100503.19
2019-04-27T17:28:04.145Z,100500.20
2019-04-27T17:30:39.732Z,100498.40
2019-04-27T17:33:11.905Z,100499.13
2019-04-27T17:35:43.037Z,100503.14
2019-04-27T17:38:15.908Z,100498.72
2019-04-27T17:40:51.654Z,100509.53
2019-04-27T17:43:23.731Z,100505.10
2019-04-27T17:45:58.184Z,100507.99
2019-04-27T17:48:32.225Z,100501.37
2019-04-27T17:51:05.835Z,100500.80
2019-04-27T17:53:38.580Z,100495.76
2019-04-27T17:56:11.355Z,100499.00
2019-04-27T17:58:43.945Z,100491.06
2019-04-27T18:01:19.137Z,100489.45
2019-04-27T18:03:59.070Z,100477.41
2019-04-27T18:06:29.463Z,100487.50
2019-04-27T18:09:03.302Z,100491.19
2019-04-27T18:11:37.233Z,100502.45
2019-04-27T18:14:14.341Z,100502.06
2019-04-27T18:16:45.116Z,100506.25
2019-04-27T18:19:23.016Z,100509.69
2019-04-27T18:22:00.509Z,100513.28
2019-04-27T18:24:49.537Z,100510.59
2019-04-27T18:27:27.040Z,100513.97
2019-04-27T18:30:03.394Z,100507.27
2019-04-27T18:32:35.790Z,100511.78
2019-04-27T18:35:08.650Z,100518.89
2019-04-27T18:37:41.545Z,100517.19
2019-04-27T18:40:14.421Z,100523.16
2019-04-27T18:42:46.875Z,100518.94
2019-04-27T18:45:19.601Z,100519.17
2019-04-27T18:47:53.885Z,100526.97
2019-04-27T18:50:34.340Z,100531.78
2019-04-27T18:53:11.545Z,100541.20
2019-04-27T18:55:44.410Z,100541.91
2019-04-27T18:58:18.801Z,100543.45
2019-04-27T19:00:52.090Z,100546.51
2019-04-27T19:03:25.136Z,100549.95
2019-04-27T19:05:58.293Z,100559.60
2019-04-27T19:08:31.053Z,100561.80
2019-04-27T19:11:05.028Z,100562.14
2019-04-27T19:13:38.193Z,100565.54
2019-04-27T19:16:12.237Z,100563.52
2019-04-27T19:18:45.190Z,100559.12
2019-04-27T19:21:20.026Z,100567.02
2019-04-27T19:23:52.670Z,100563.03
2019-04-27T19:26:42.360Z,100558.77
2019-04-27T19:29:18.766Z,100572.63
2019-04-27T19:31:52.850Z,100566.33
2019-04-27T19:34:25.641Z,100563.16
2019-04-27T19:36:59.231Z,100560.82
2019-04-27T19:39:32.140Z,100553.70
2019-04-27T19:42:04.990Z,100547.62
2019-04-27T19:44:38.953Z,100555.45
2019-04-27T19:47:11.861Z,100561.86
2019-04-27T19:49:44.665Z,100567.44
2019-04-27T19:52:18.315Z,100564.27
2019-04-27T19:54:51.471Z,100574.61
2019-04-27T19:57:33.145Z,100575.56
2019-04-27T20:00:00.176Z,100571.81
2019-04-27T20:02:33.125Z,100572.13
2019-04-27T20:05:08.395Z,100574.77
2019-04-27T20:07:41.165Z,100577.96
2019-04-27T20:10:14.091Z,100588.66
2019-04-27T20:12:46.925Z,100579.19
2019-04-27T20:15:19.730Z,100579.65
2019-04-27T20:17:52.375Z,100578.05
2019-04-27T20:20:25.090Z,100585.58
2019-04-27T20:22:57.955Z,100582.66
2019-04-27T20:25:31.343Z,100585.39
2019-04-27T20:28:04.281Z,100593.28
2019-04-27T20:30:36.975Z,100588.19
2019-04-27T20:33:11.070Z,100589.05
2019-04-27T20:35:43.471Z,100592.44
2019-04-27T20:38:16.250Z,100601.91
2019-04-27T20:40:49.086Z,100602.08
2019-04-27T20:43:24.484Z,100604.61
2019-04-27T20:45:56.445Z,100598.79
2019-04-27T20:48:31.172Z,100605.00
2019-04-27T20:51:03.548Z,100605.81
2019-04-27T20:53:46.945Z,100602.83
2019-04-27T20:56:19.677Z,100601.88
2019-04-27T20:58:52.536Z,100601.88
2019-04-27T21:01:25.260Z,100610.91
2019-04-27T21:04:00.927Z,100621.79
2019-04-27T21:06:38.236Z,100618.80
2019-04-27T21:09:14.320Z,100616.44
2019-04-27T21:11:47.982Z,100615.88
2019-04-27T21:14:21.761Z,100608.19
2019-04-27T21:16:54.655Z,100605.06
2019-04-27T21:19:27.060Z,100602.44
2019-04-27T21:22:01.233Z,100598.59
2019-04-27T21:24:34.244Z,100597.47
2019-04-27T21:27:07.165Z,100590.51
2019-04-27T21:29:39.560Z,100592.67
2019-04-27T21:32:12.466Z,100593.53
2019-04-27T21:34:45.235Z,100591.92
2019-04-27T21:37:18.140Z,100590.24
2019-04-27T21:39:53.297Z,100579.53
2019-04-27T21:42:27.580Z,100578.31
2019-04-27T21:45:01.253Z,100577.16
2019-04-27T21:47:35.245Z,100573.72
2019-04-27T21:50:09.730Z,100573.42
2019-04-27T21:52:44.182Z,100568.36
2019-04-27T21:55:18.695Z,100569.08
2019-04-27T21:57:51.385Z,100569.83
2019-04-27T22:00:42.760Z,100576.95
2019-04-27T22:03:18.585Z,100577.93
2019-04-27T22:05:51.576Z,100576.34
2019-04-27T22:08:24.620Z,100579.53
2019-04-27T22:10:57.395Z,100586.25
2019-04-27T22:13:31.116Z,100589.44
2019-04-27T22:16:03.885Z,100592.25
2019-04-27T22:18:36.465Z,100589.33
2019-04-27T22:21:11.226Z,100584.25
2019-04-27T22:24:01.540Z,100584.47
2019-04-27T22:26:34.370Z,100580.11
2019-04-27T22:29:06.991Z,100579.52
2019-04-27T22:31:41.539Z,100586.87
2019-04-27T22:34:14.345Z,100581.13
2019-04-27T22:36:46.810Z,100583.91
2019-04-27T22:39:27.070Z,100584.45
2019-04-27T22:42:17.635Z,100585.00
2019-04-27T22:44:51.880Z,100587.27
2019-04-27T22:47:24.625Z,100585.15
2019-04-27T22:49:57.165Z,100580.87
2019-04-27T22:52:30.772Z,100579.43
2019-04-27T22:55:03.525Z,100581.92
2019-04-27T22:57:37.750Z,100586.55
2019-04-27T23:00:18.710Z,100585.72
2019-04-27T23:02:54.625Z,100590.79
2019-04-27T23:05:27.314Z,100586.00
2019-04-27T23:08:01.775Z,100583.47
2019-04-27T23:10:34.495Z,100584.69
2019-04-27T23:13:08.370Z,100589.70
2019-04-27T23:15:42.650Z,100590.46
2019-04-27T23:18:15.120Z,100601.00
2019-04-27T23:20:47.735Z,100596.73
2019-04-27T23:23:21.808Z,100592.93
2019-04-27T23:25:54.630Z,100590.80
2019-04-27T23:28:27.295Z,100592.42
2019-04-27T23:31:02.481Z,100585.22
2019-04-27T23:33:35.415Z,100585.98
2019-04-27T23:36:08.135Z,100591.91
2019-04-27T23:38:40.914Z,100582.72
2019-04-27T23:41:13.751Z,100575.16
2019-04-27T23:43:46.232Z,100576.68
2019-04-27T23:46:18.981Z,100569.66
2019-04-27T23:48:53.784Z,100565.78
2019-04-27T23:51:30.530Z,100566.94
2019-04-27T23:54:04.330Z,100570.78
2019-04-27T23:56:37.050Z,100573.63
2019-04-27T23:59:09.806Z,100569.78
